Time,TemperatureF,DewpointF,PressureIn,WindDirection,WindDirectionDegrees,WindSpeedMPH,WindSpeedGustMPH,Humidity,HourlyPrecipIn,Conditions,Clouds,dailyrainin,SolarRadiationWatts/m^2,SoftwareType,DateUTC
2013-07-06 00:01:00,52.0,36.0,-100.00,SW,227,4.0,8.0,54,0.00,,,0.00,0.000000,,2013-07-06 07:01:00,
2013-07-06 00:12:00,52.0,36.0,-100.00,SW,227,4.0,8.0,54,0.00,,,0.00,0.000000,,2013-07-06 07:12:00,
2013-07-06 00:44:00,51.0,36.0,-100.00,South,170,3.0,5.0,57,0.00,,,0.00,0.000000,,2013-07-06 07:44:00,
2013-07-06 00:52:00,51.0,36.0,-100.00,South,170,3.0,5.0,57,0.00,,,0.00,0.000000,,2013-07-06 07:52:00,
2013-07-06 01:02:00,51.0,36.0,-100.00,South,170,3.0,5.0,57,0.00,,,0.00,0.000000,,2013-07-06 08:02:00,
2013-07-06 01:11:00,51.0,36.0,-100.00,South,170,3.0,5.0,57,0.00,,,0.00,0.000000,,2013-07-06 08:11:00,
2013-07-06 01:43:00,50.0,38.0,-100.00,SE,146,4.0,5.0,62,0.00,,,0.00,0.000000,,2013-07-06 08:43:00,
2013-07-06 01:54:00,50.0,38.0,-100.00,SE,146,4.0,5.0,62,0.00,,,0.00,0.000000,,2013-07-06 08:54:00,
2013-07-06 02:02:00,50.0,38.0,-100.00,SE,146,4.0,5.0,62,0.00,,,0.00,0.000000,,2013-07-06 09:02:00,
2013-07-06 02:11:00,50.0,38.0,-100.00,SE,146,4.0,5.0,62,0.00,,,0.00,0.000000,,2013-07-06 09:11:00,
2013-07-06 02:43:00,50.0,37.0,-100.00,SSE,163,4.0,6.0,61,0.00,,,0.00,0.000000,,2013-07-06 09:43:00,
2013-07-06 02:52:00,50.0,37.0,-100.00,SSE,163,4.0,6.0,61,0.00,,,0.00,0.000000,,2013-07-06 09:52:00,
2013-07-06 03:02:00,50.0,37.0,-100.00,SSE,163,4.0,6.0,61,0.00,,,0.00,0.000000,,2013-07-06 10:02:00,
2013-07-06 03:11:00,50.0,37.0,-100.00,SSE,163,4.0,6.0,61,0.00,,,0.00,0.000000,,2013-07-06 10:11:00,
2013-07-06 03:43:00,48.0,36.0,-100.00,SE,145,4.0,5.0,64,0.00,,,0.00,0.000000,,2013-07-06 10:43:00,
2013-07-06 03:53:00,48.0,36.0,-100.00,SE,145,4.0,5.0,64,0.00,,,0.00,0.000000,,2013-07-06 10:53:00,
2013-07-06 04:01:00,48.0,36.0,-100.00,SE,145,4.0,5.0,64,0.00,,,0.00,0.000000,,2013-07-06 11:01:00,
2013-07-06 04:11:00,48.0,36.0,-100.00,SE,145,4.0,5.0,64,0.00,,,0.00,0.000000,,2013-07-06 11:11:00,
2013-07-06 04:43:00,49.0,36.0,-100.00,South,170,4.0,6.0,61,0.00,,,0.00,0.000000,,2013-07-06 11:43:00,
2013-07-06 04:53:00,49.0,36.0,-100.00,South,170,4.0,6.0,61,0.00,,,0.00,0.000000,,2013-07-06 11:53:00,
2013-07-06 05:01:00,49.0,36.0,-100.00,South,170,4.0,6.0,61,0.00,,,0.00,0.000000,,2013-07-06 12:01:00,
2013-07-06 05:11:00,49.0,36.0,-100.00,South,170,4.0,6.0,61,0.00,,,0.00,0.000000,,2013-07-06 12:11:00,
2013-07-06 05:43:00,47.0,33.0,-100.00,SSE,151,4.0,6.0,59,0.00,,,0.00,0.000000,,2013-07-06 12:43:00,
2013-07-06 05:52:00,47.0,33.0,-100.00,SSE,151,4.0,6.0,59,0.00,,,0.00,0.000000,,2013-07-06 12:52:00,
2013-07-06 06:01:00,47.0,33.0,-100.00,SSE,151,4.0,6.0,59,0.00,,,0.00,0.000000,,2013-07-06 13:01:00,
2013-07-06 06:11:00,47.0,33.0,-100.00,SSE,151,4.0,6.0,59,0.00,,,0.00,0.000000,,2013-07-06 13:11:00,
2013-07-06 06:43:00,51.0,34.0,-100.00,SSE,150,4.0,6.0,51,0.00,,,0.00,30.000000,,2013-07-06 13:43:00,
2013-07-06 08:02:00,54.0,33.0,-100.00,SE,135,3.0,6.0,44,0.00,,,0.00,194.000000,,2013-07-06 15:02:00,
2013-07-06 08:12:00,54.0,33.0,-100.00,SE,135,3.0,6.0,44,0.00,,,0.00,194.000000,,2013-07-06 15:12:00,
2013-07-06 08:43:00,58.0,35.0,-100.00,WNW,294,4.0,5.0,42,0.00,,,0.00,403.000000,,2013-07-06 15:43:00,
2013-07-06 08:53:00,58.0,35.0,-100.00,WNW,294,4.0,5.0,42,0.00,,,0.00,403.000000,,2013-07-06 15:53:00,
2013-07-06 09:03:00,58.0,35.0,-100.00,WNW,294,4.0,5.0,42,0.00,,,0.00,403.000000,,2013-07-06 16:03:00,
2013-07-06 09:58:00,61.0,38.0,-100.00,NW,319,5.0,7.0,42,0.00,,,0.00,609.000000,,2013-07-06 16:58:00,
2013-07-06 10:05:00,61.0,38.0,-100.00,NW,319,5.0,7.0,42,0.00,,,0.00,609.000000,,2013-07-06 17:05:00,
2013-07-06 11:05:00,66.0,39.0,-100.00,NNW,332,6.0,9.0,37,0.00,,,0.00,814.000000,,2013-07-06 18:05:00,
2013-07-06 11:59:00,70.0,39.0,-100.00,North,355,6.0,12.0,32,0.00,,,0.00,975.000000,,2013-07-06 18:59:00,
2013-07-06 12:05:00,70.0,39.0,-100.00,North,355,6.0,12.0,32,0.00,,,0.00,975.000000,,2013-07-06 19:05:00,
2013-07-06 12:12:00,70.0,39.0,-100.00,North,355,6.0,12.0,32,0.00,,,0.00,975.000000,,2013-07-06 19:12:00,
2013-07-06 14:04:00,76.0,38.0,-100.00,NNW,335,8.0,16.0,25,0.00,,,0.00,1130.000000,,2013-07-06 21:04:00,
2013-07-06 14:59:00,76.0,37.0,-100.00,WNW,282,8.0,16.0,24,0.00,,,0.00,1101.000000,,2013-07-06 21:59:00,
2013-07-06 15:13:00,76.0,37.0,-100.00,WNW,282,8.0,16.0,24,0.00,,,0.00,1101.000000,,2013-07-06 22:13:00,
2013-07-06 15:58:00,77.0,33.0,-100.00,NW,326,7.0,15.0,20,0.00,,,0.00,786.000000,,2013-07-06 22:58:00,
2013-07-06 16:05:00,77.0,33.0,-100.00,NW,326,7.0,15.0,20,0.00,,,0.00,786.000000,,2013-07-06 23:05:00,
2013-07-06 16:13:00,77.0,33.0,-100.00,NW,326,7.0,15.0,20,0.00,,,0.00,786.000000,,2013-07-06 23:13:00,
2013-07-06 16:50:00,80.0,33.0,-100.00,NW,314,9.0,17.0,18,0.00,,,0.00,902.000000,,2013-07-06 23:50:00,
2013-07-06 16:57:00,80.0,33.0,-100.00,NW,314,9.0,17.0,18,0.00,,,0.00,902.000000,,2013-07-06 23:57:00,
2013-07-06 17:05:00,80.0,33.0,-100.00,NW,314,9.0,17.0,18,0.00,,,0.00,902.000000,,2013-07-07 00:05:00,
2013-07-06 17:13:00,80.0,33.0,-100.00,NW,314,9.0,17.0,18,0.00,,,0.00,902.000000,,2013-07-07 00:13:00,
2013-07-06 18:48:00,78.0,30.0,-100.00,NNW,332,12.0,17.0,17,-99.99,,,0.00,583.000000,,2013-07-07 01:48:00,
2013-07-06 18:57:00,78.0,30.0,-100.00,NNW,332,12.0,17.0,17,-99.99,,,0.00,583.000000,,2013-07-07 01:57:00,
2013-07-06 19:03:00,78.0,30.0,-100.00,NNW,332,12.0,17.0,17,-99.99,,,0.00,583.000000,,2013-07-07 02:03:00,
2013-07-06 19:11:00,78.0,30.0,-100.00,NNW,332,12.0,17.0,17,-99.99,,,0.00,583.000000,,2013-07-07 02:11:00,
2013-07-06 19:58:00,74.0,29.0,-100.00,NNW,343,10.0,19.0,19,0.00,,,0.00,366.000000,,2013-07-07 02:58:00,
2013-07-06 20:03:00,74.0,29.0,-100.00,NNW,343,10.0,19.0,19,0.00,,,0.00,366.000000,,2013-07-07 03:03:00,
2013-07-06 20:11:00,74.0,29.0,-100.00,NNW,343,10.0,19.0,19,0.00,,,0.00,366.000000,,2013-07-07 03:11:00,
2013-07-06 20:52:00,71.0,31.0,-100.00,NNW,346,12.0,19.0,23,0.00,,,0.00,168.000000,,2013-07-07 03:52:00,
2013-07-06 21:01:00,71.0,31.0,-100.00,NNW,346,12.0,19.0,23,0.00,,,0.00,168.000000,,2013-07-07 04:01:00,
2013-07-06 21:11:00,71.0,31.0,-100.00,NNW,346,12.0,19.0,23,0.00,,,0.00,168.000000,,2013-07-07 04:11:00,
2013-07-06 21:31:00,68.0,35.0,-100.00,North,358,10.0,17.0,29,0.00,,,0.00,18.000000,,2013-07-07 04:31:00,
2013-07-06 21:41:00,68.0,35.0,-100.00,North,358,10.0,17.0,29,0.00,,,0.00,18.000000,,2013-07-07 04:41:00,
2013-07-06 21:51:00,68.0,35.0,-100.00,North,358,10.0,17.0,29,0.00,,,0.00,18.000000,,2013-07-07 04:51:00,
2013-07-06 22:01:00,68.0,35.0,-100.00,North,358,10.0,17.0,29,0.00,,,0.00,18.000000,,2013-07-07 05:01:00,
2013-07-06 22:11:00,68.0,35.0,-100.00,North,358,10.0,17.0,29,0.00,,,0.00,18.000000,,2013-07-07 05:11:00,
2013-07-06 22:31:00,66.0,34.0,-100.00,North,4,7.0,18.0,31,0.00,,,-99.99,0.000000,,2013-07-07 05:31:00,
2013-07-06 22:41:00,66.0,34.0,-100.00,North,4,7.0,18.0,31,0.00,,,-99.99,0.000000,,2013-07-07 05:41:00,
2013-07-06 22:51:00,66.0,34.0,-100.00,North,4,7.0,18.0,31,0.00,,,-99.99,0.000000,,2013-07-07 05:51:00,
2013-07-06 23:01:00,66.0,34.0,-100.00,North,4,7.0,18.0,31,0.00,,,-99.99,0.000000,,2013-07-07 06:01:00,
2013-07-06 23:11:00,66.0,34.0,-100.00,North,4,7.0,18.0,31,0.00,,,-99.99,0.000000,,2013-07-07 06:11:00,
2013-07-06 23:43:00,63.0,33.0,-100.00,North,4,6.0,12.0,33,0.00,,,0.00,0.000000,,2013-07-07 06:43:00,
2013-07-06 23:52:00,63.0,33.0,-100.00,North,4,6.0,12.0,33,0.00,,,0.00,0.000000,,2013-07-07 06:52:00,